Time;durP1;ratioP1;P1;durP2;ratioP2;P2;SDS_P1;SDS_P2;PMS_P1;PMS_P2;Temp;Humidity;BMP_temperature;BMP_pressure;BME280_temperature;BME280_humidity;BME280_pressure;Samples;Min_cycle;Max_cycle;Signal;HPM_P1;HPM_P2
2022/07/03 00:01:58;;;;;;;7.72;5.80;;;23.90;99.90;;;;;;4965509;28;20035;-51
2022/07/03 00:04:24;;;;;;;8.30;7.45;;;23.80;99.90;;;;;;4966799;28;20371;-52
2022/07/03 00:06:50;;;;;;;7.68;6.32;;;;;;;;;;4967042;28;20039;-52
2022/07/03 00:09:18;;;;;;;8.93;6.45;;;23.80;99.90;;;;;;4982520;28;20050;-51
2022/07/03 00:11:44;;;;;;;6.82;6.10;;;23.80;99.90;;;;;;4964592;28;20030;-51
2022/07/03 00:14:10;;;;;;;5.68;4.40;;;23.80;99.90;;;;;;4980907;28;20040;-51
2022/07/03 00:16:36;;;;;;;6.20;4.38;;;23.80;99.90;;;;;;4973102;28;20414;-51
2022/07/03 00:19:02;;;;;;;6.45;3.38;;;23.70;99.90;;;;;;4967551;28;20031;-51
2022/07/03 00:21:33;;;;;;;4.95;3.50;;;23.70;99.90;;;;;;4970069;28;20174;-51
2022/07/03 00:24:09;;;;;;;6.97;3.90;;;23.70;99.90;;;;;;4967227;28;20463;-52
2022/07/03 00:26:37;;;;;;;5.03;3.90;;;;;;;;;;4970901;28;20117;-54
2022/07/03 00:29:04;;;;;;;5.78;3.80;;;;;;;;;;4981943;28;20066;-53
2022/07/03 00:31:31;;;;;;;6.45;3.85;;;23.60;99.90;;;;;;4963892;28;20043;-52
2022/07/03 00:33:59;;;;;;;4.32;3.35;;;23.70;99.90;;;;;;4965449;28;20509;-52
2022/07/03 00:36:35;;;;;;;7.93;3.72;;;23.70;99.90;;;;;;4969009;28;20035;-52
2022/07/03 00:39:01;;;;;;;6.85;3.60;;;23.70;99.90;;;;;;4970507;28;20052;-52
2022/07/03 00:41:32;;;;;;;7.30;3.90;;;23.70;99.90;;;;;;4968461;28;20174;-51
2022/07/03 00:43:58;;;;;;;6.03;3.67;;;23.60;99.90;;;;;;4968866;28;20042;-52
2022/07/03 00:46:26;;;;;;;6.30;3.75;;;23.60;99.90;;;;;;4966187;28;20384;-51
2022/07/03 00:48:53;;;;;;;4.70;3.30;;;23.60;99.90;;;;;;4966706;28;20038;-51
2022/07/03 00:51:27;;;;;;;9.20;3.33;;;23.50;99.90;;;;;;4970821;28;20070;-51
2022/07/03 00:53:58;;;;;;;4.75;3.28;;;23.50;99.90;;;;;;4966691;28;20053;-51
2022/07/03 00:56:32;;;;;;;9.40;3.40;;;;;;;;;;4966256;28;20057;-52
2022/07/03 00:59:00;;;;;;;6.07;3.67;;;;;;;;;;4952699;28;20305;-52
2022/07/03 01:01:27;;;;;;;5.32;3.70;;;;;;;;;;4970046;28;20117;-51
2022/07/03 01:04:01;;;;;;;6.20;3.50;;;;;;;;;;4969967;28;20039;-51
2022/07/03 01:06:32;;;;;;;4.05;3.42;;;;;;;;;;4970737;28;20106;-51
2022/07/03 01:09:03;;;;;;;6.15;4.10;;;;;;;;;;4964980;28;20066;-52
2022/07/03 01:11:34;;;;;;;6.13;3.83;;;;;;;;;;4964743;28;20031;-52
2022/07/03 01:14:09;;;;;;;4.35;3.60;;;;;;;;;;4972428;28;20113;-51
2022/07/03 01:16:41;;;;;;;7.18;3.05;;;;;;;;;;4967512;28;20058;-51
2022/07/03 01:19:17;;;;;;;4.75;3.63;;;;;;;;;;4966980;28;20035;-51
2022/07/03 01:22:01;;;;;;;5.47;3.40;;;;;;;;;;4965738;28;20501;-51
2022/07/03 01:24:46;;;;;;;5.55;3.70;;;;;;;;;;4965847;28;20049;-52
2022/07/03 01:27:14;;;;;;;5.40;3.67;;;;;;;;;;4970416;28;20042;-52
2022/07/03 01:30:02;;;;;;;6.00;3.90;;;;;;;;;;4966301;28;20054;-52
2022/07/03 01:32:32;;;;;;;9.13;3.83;;;;;;;;;;4963647;28;20062;-51
2022/07/03 01:35:00;;;;;;;7.53;3.97;;;;;;;;;;4970929;28;20065;-52
2022/07/03 01:37:28;;;;;;;5.45;3.80;;;;;;;;;;4968746;28;20034;-51
2022/07/03 01:39:54;;;;;;;6.03;3.70;;;;;;;;;;4965630;28;20046;-51
2022/07/03 01:42:23;;;;;;;4.90;3.10;;;;;;;;;;4968697;28;20030;-52
2022/07/03 01:44:50;;;;;;;4.55;3.65;;;;;;;;;;4969147;28;20105;-51
2022/07/03 01:47:16;;;;;;;5.85;3.67;;;;;;;;;;4965897;28;20110;-52
2022/07/03 01:49:43;;;;;;;7.40;4.10;;;;;;;;;;4971301;28;20467;-51
2022/07/03 01:52:10;;;;;;;6.57;3.38;;;;;;;;;;4968745;28;20034;-52
2022/07/03 01:54:39;;;;;;;8.35;4.15;;;;;;;;;;4966924;28;20129;-51
2022/07/03 01:57:06;;;;;;;6.32;3.72;;;23.30;99.90;;;;;;4973014;28;20126;-51
2022/07/03 01:59:32;;;;;;;5.10;3.95;;;23.30;99.90;;;;;;4967686;28;20093;-51
2022/07/03 02:02:23;;;;;;;5.15;3.80;;;23.30;99.90;;;;;;4966119;28;20410;-51
2022/07/03 02:05:13;;;;;;;7.32;4.22;;;23.30;99.90;;;;;;5006809;28;20138;-52
2022/07/03 02:08:04;;;;;;;7.93;3.45;;;23.30;99.90;;;;;;5002912;28;20049;-51
2022/07/03 02:10:38;;;;;;;8.18;3.70;;;23.40;99.90;;;;;;4975370;28;20042;-52
2022/07/03 02:13:27;;;;;;;5.43;3.10;;;23.40;99.90;;;;;;5003971;28;20062;-52
2022/07/03 02:15:56;;;;;;;6.90;4.00;;;23.40;99.90;;;;;;5000577;28;20034;-51
2022/07/03 02:18:33;;;;;;;6.10;3.95;;;23.20;99.90;;;;;;5006819;28;20037;-53
2022/07/03 02:21:14;;;;;;;6.30;3.83;;;23.20;99.90;;;;;;5010210;28;20030;-52
2022/07/03 02:24:15;;;;;;;6.25;4.00;;;23.20;99.90;;;;;;5003584;28;20104;-52
2022/07/03 02:26:42;;;;;;;6.07;3.10;;;23.30;99.90;;;;;;4926246;29;20046;-52
2022/07/03 02:29:14;;;;;;;5.93;4.57;;;23.30;99.90;;;;;;4920276;29;20040;-53
2022/07/03 02:31:53;;;;;;;5.07;3.97;;;23.20;99.90;;;;;;4928297;29;20044;-52
2022/07/03 02:34:23;;;;;;;11.73;4.43;;;23.20;99.90;;;;;;4923782;29;20115;-52
2022/07/03 02:36:52;;;;;;;5.32;3.60;;;23.20;99.90;;;;;;4912979;29;20448;-51
2022/07/03 02:39:26;;;;;;;5.82;3.60;;;;;;;;;;4928346;29;20043;-52
2022/07/03 02:42:05;;;;;;;9.95;4.43;;;22.70;99.90;;;;;;4916480;29;20044;-52
2022/07/03 02:44:42;;;;;;;6.15;4.25;;;22.80;99.90;;;;;;4910853;29;20040;-51
2022/07/03 02:47:29;;;;;;;6.45;5.38;;;23.00;99.90;;;;;;4906580;29;20039;-52
2022/07/03 02:50:11;;;;;;;6.25;3.92;;;23.00;99.90;;;;;;4909071;29;20084;-52
2022/07/03 02:52:43;;;;;;;8.07;4.05;;;23.20;99.90;;;;;;4908257;29;20119;-52
2022/07/03 02:55:27;;;;;;;;;;;23.20;99.90;;;;;;4910442;29;20044;-52
2022/07/03 02:58:17;;;;;;;6.15;3.97;;;23.20;99.90;;;;;;4907744;29;19920;-51
2022/07/03 03:00:58;;;;;;;5.93;3.80;;;23.20;99.90;;;;;;4913812;29;20067;-52
2022/07/03 03:03:28;;;;;;;9.60;3.92;;;23.20;99.90;;;;;;4940116;28;20046;-52
2022/07/03 03:05:58;;;;;;;6.47;4.15;;;23.30;99.90;;;;;;4972669;28;20023;-52
2022/07/03 03:08:34;;;;;;;9.00;3.97;;;23.30;99.90;;;;;;4970407;28;20020;-52
2022/07/03 03:11:07;;;;;;;7.13;4.50;;;23.40;99.90;;;;;;4968450;28;20499;-52
2022/07/03 03:13:35;;;;;;;6.30;3.95;;;23.40;99.90;;;;;;4972484;28;20075;-51
2022/07/03 03:16:09;;;;;;;14.82;4.70;;;23.30;99.90;;;;;;4969386;28;20030;-51
2022/07/03 03:18:40;;;;;;;7.70;3.50;;;23.40;99.90;;;;;;4972594;28;20488;-52
2022/07/03 03:21:09;;;;;;;5.97;4.13;;;23.40;99.90;;;;;;4966012;28;20039;-52
2022/07/03 03:23:51;;;;;;;10.48;4.00;;;23.50;99.90;;;;;;4971694;28;20030;-52
2022/07/03 03:26:21;;;;;;;;;;;23.60;99.90;;;;;;4967017;28;20023;-51
2022/07/03 03:28:48;;;;;;;8.52;4.20;;;23.60;99.90;;;;;;4969593;28;19910;-52
2022/07/03 03:31:14;;;;;;;7.15;4.30;;;23.60;99.90;;;;;;4969146;28;20031;-51
2022/07/03 03:33:41;;;;;;;10.50;3.95;;;23.70;99.90;;;;;;4974370;28;20027;-51
2022/07/03 03:36:09;;;;;;;7.70;4.03;;;23.50;99.90;;;;;;4970390;28;20071;-52
2022/07/03 03:38:35;;;;;;;6.15;3.83;;;23.60;99.90;;;;;;4971021;28;20039;-52
2022/07/03 03:41:03;;;;;;;8.38;4.43;;;23.50;99.90;;;;;;4969917;28;20054;-52
2022/07/03 03:43:29;;;;;;;10.38;4.68;;;23.50;99.90;;;;;;4965292;28;20039;-51
2022/07/03 03:45:54;;;;;;;6.43;3.70;;;23.40;99.90;;;;;;4967940;28;20435;-51
2022/07/03 03:48:20;;;;;;;8.40;3.92;;;23.40;99.90;;;;;;4971402;28;20023;-51
2022/07/03 03:50:46;;;;;;;7.30;4.30;;;23.60;99.90;;;;;;4968934;28;20042;-51
2022/07/03 03:53:12;;;;;;;9.48;3.88;;;23.60;99.90;;;;;;4971910;28;20035;-52
2022/07/03 03:55:53;;;;;;;7.05;3.70;;;23.60;99.90;;;;;;4974347;28;20027;-52
2022/07/03 03:58:18;;;;;;;7.80;4.60;;;23.50;99.90;;;;;;4971410;28;20043;-52
2022/07/03 04:00:44;;;;;;;7.00;4.68;;;23.50;99.90;;;;;;4964927;28;20081;-51
2022/07/03 04:03:10;;;;;;;6.53;4.57;;;23.40;99.90;;;;;;4963624;28;20423;-52
2022/07/03 04:05:36;;;;;;;8.95;4.97;;;23.50;99.90;;;;;;4968855;28;20046;-51
2022/07/03 04:08:01;;;;;;;8.30;5.10;;;23.60;99.90;;;;;;4968378;28;20039;-52
2022/07/03 04:10:27;;;;;;;7.38;5.93;;;23.50;99.90;;;;;;4972064;28;20018;-51
2022/07/03 04:12:53;;;;;;;8.75;5.85;;;23.50;99.90;;;;;;4971685;28;20061;-51
2022/07/03 04:15:19;;;;;;;9.52;5.40;;;23.50;99.90;;;;;;4968250;28;20031;-51
2022/07/03 04:17:44;;;;;;;7.00;4.80;;;23.50;99.90;;;;;;4962497;28;20376;-52
2022/07/03 04:20:13;;;;;;;13.07;4.63;;;23.50;99.90;;;;;;4969856;28;20031;-52
2022/07/03 04:22:38;;;;;;;8.27;4.85;;;23.60;99.90;;;;;;4971436;28;20035;-52
2022/07/03 04:25:04;;;;;;;7.03;4.18;;;23.50;99.90;;;;;;5001829;28;20174;-51
2022/07/03 04:27:32;;;;;;;7.15;4.35;;;23.40;99.90;;;;;;4971159;28;20031;-51
2022/07/03 04:29:58;;;;;;;7.82;4.43;;;23.30;99.90;;;;;;4966826;28;20089;-51
2022/07/03 04:32:23;;;;;;;7.75;4.35;;;23.30;99.90;;;;;;4966388;28;20030;-51
2022/07/03 04:34:49;;;;;;;10.73;4.68;;;23.30;99.90;;;;;;4970295;28;20043;-52
2022/07/03 04:37:15;;;;;;;8.45;4.10;;;23.40;99.90;;;;;;4971630;28;20047;-51
2022/07/03 04:39:40;;;;;;;8.40;4.68;;;23.40;99.90;;;;;;4985898;28;20137;-51
2022/07/03 04:42:06;;;;;;;10.43;4.20;;;23.40;99.90;;;;;;4968203;28;20106;-52
2022/07/03 04:44:32;;;;;;;8.23;3.90;;;23.40;99.90;;;;;;4986182;28;20085;-52
2022/07/03 04:46:58;;;;;;;7.30;4.32;;;23.50;99.90;;;;;;4968616;28;20037;-52
2022/07/03 04:49:23;;;;;;;7.38;4.68;;;23.60;99.90;;;;;;4969535;28;20019;-51
2022/07/03 04:51:49;;;;;;;8.35;4.70;;;23.60;99.90;;;;;;4965243;28;20035;-53
2022/07/03 04:54:15;;;;;;;6.65;3.83;;;23.60;99.90;;;;;;4971456;28;20034;-53
2022/07/03 04:56:41;;;;;;;8.75;3.75;;;23.70;99.90;;;;;;4968769;28;20054;-52
2022/07/03 04:59:07;;;;;;;7.63;3.60;;;23.70;99.90;;;;;;4970962;28;20105;-52
2022/07/03 05:01:32;;;;;;;8.40;3.88;;;23.80;99.90;;;;;;4968387;28;20030;-51
2022/07/03 05:03:58;;;;;;;8.88;3.88;;;24.00;99.90;;;;;;4965812;28;20027;-51
2022/07/03 05:06:24;;;;;;;5.85;3.75;;;23.90;99.90;;;;;;4968900;28;20035;-51
2022/07/03 05:08:49;;;;;;;7.50;3.53;;;23.90;99.90;;;;;;4970039;28;20022;-52
2022/07/03 05:11:15;;;;;;;6.28;3.63;;;24.00;99.90;;;;;;4965400;28;20095;-51
2022/07/03 05:13:41;;;;;;;5.70;3.50;;;24.20;99.90;;;;;;4970930;28;20039;-52
2022/07/03 05:16:06;;;;;;;5.65;3.03;;;24.20;99.90;;;;;;4967404;28;20031;-52
2022/07/03 05:18:34;;;;;;;7.13;4.00;;;24.10;99.90;;;;;;4980769;28;20115;-52
2022/07/03 05:20:59;;;;;;;6.90;3.45;;;24.30;99.90;;;;;;4968686;28;20426;-53
2022/07/03 05:23:25;;;;;;;6.05;3.72;;;24.40;99.90;;;;;;4968721;28;20057;-51
2022/07/03 05:41:55;;;;;;;8.90;4.32;;;25.00;99.90;;;;;;5129424;27;20065;-50
2022/07/03 05:44:20;;;;;;;8.77;3.67;;;25.00;99.90;;;;;;5130177;27;20023;-49
2022/07/03 05:46:46;;;;;;;8.00;3.47;;;25.00;99.90;;;;;;5134412;27;20043;-50
2022/07/03 05:49:12;;;;;;;6.75;3.65;;;25.10;99.90;;;;;;5116246;28;20051;-50
2022/07/03 05:51:38;;;;;;;8.35;3.65;;;25.10;99.90;;;;;;5114906;28;20118;-50
2022/07/03 05:54:04;;;;;;;8.45;4.03;;;25.10;99.90;;;;;;5106636;28;20039;-50
2022/07/03 05:56:29;;;;;;;6.35;3.83;;;25.00;99.90;;;;;;5127474;27;20027;-50
2022/07/03 05:58:55;;;;;;;5.20;3.75;;;25.00;99.90;;;;;;5130111;27;20032;-50
2022/07/03 06:01:23;;;;;;;6.70;4.25;;;25.10;99.90;;;;;;5080247;28;20032;-50
2022/07/03 06:03:49;;;;;;;5.57;3.55;;;25.10;99.90;;;;;;5129141;27;20059;-50
2022/07/03 06:06:15;;;;;;;7.22;5.00;;;25.20;99.90;;;;;;5133860;27;20031;-51
2022/07/03 06:08:41;;;;;;;8.00;4.13;;;25.20;99.90;;;;;;5132010;27;20050;-50
2022/07/03 06:11:07;;;;;;;8.35;4.10;;;25.30;99.90;;;;;;5129427;27;20019;-51
2022/07/03 06:13:32;;;;;;;7.72;4.03;;;25.40;99.90;;;;;;5130289;27;20027;-51
2022/07/03 06:15:58;;;;;;;6.22;3.75;;;25.50;99.90;;;;;;5098665;28;20035;-50
2022/07/03 06:18:24;;;;;;;12.00;4.32;;;25.60;99.90;;;;;;5127020;27;20035;-52
2022/07/03 06:20:49;;;;;;;8.93;4.50;;;25.80;99.90;;;;;;5130401;27;20030;-50
2022/07/03 06:23:15;;;;;;;8.93;4.90;;;25.90;99.90;;;;;;5127395;27;20490;-52
2022/07/03 06:25:41;;;;;;;10.93;4.13;;;25.90;99.90;;;;;;5128041;27;20039;-50
2022/07/03 06:28:07;;;;;;;7.35;4.38;;;;;;;;;;5129581;27;20119;-50
2022/07/03 06:30:33;;;;;;;4.03;3.45;;;26.20;99.90;;;;;;5129553;27;20027;-51
2022/07/03 06:32:58;;;;;;;5.80;3.63;;;26.30;99.90;;;;;;5125525;27;20030;-51
2022/07/03 06:35:24;;;;;;;9.57;4.00;;;26.30;99.90;;;;;;5129951;27;20069;-50
2022/07/03 06:37:50;;;;;;;6.15;3.45;;;26.50;99.90;;;;;;5126354;27;20057;-50
2022/07/03 06:40:15;;;;;;;10.93;3.70;;;26.40;99.90;;;;;;5116402;27;20039;-50
2022/07/03 06:42:41;;;;;;;5.38;3.92;;;26.50;99.90;;;;;;5115583;27;20023;-50
2022/07/03 06:45:07;;;;;;;6.40;3.65;;;26.70;99.90;;;;;;5113220;27;20024;-51
2022/07/03 06:47:37;;;;;;;5.07;3.55;;;;;;;;;;5087823;28;20056;-51
2022/07/03 06:50:03;;;;;;;6.53;4.03;;;26.90;99.90;;;;;;5111561;27;20073;-51
2022/07/03 06:52:29;;;;;;;5.95;3.53;;;;;;;;;;5115180;27;20035;-50
2022/07/03 06:54:55;;;;;;;6.88;3.65;;;27.30;99.90;;;;;;5114400;27;20031;-51
2022/07/03 06:57:21;;;;;;;6.80;4.28;;;27.40;99.90;;;;;;5114176;27;20423;-52
2022/07/03 06:59:48;;;;;;;7.22;3.63;;;;;;;;;;5109010;27;20047;-51
2022/07/03 07:02:14;;;;;;;5.45;3.60;;;;;;;;;;5108773;27;20081;-50
2022/07/03 07:04:40;;;;;;;7.05;3.38;;;27.90;99.90;;;;;;5112324;27;20032;-50
2022/07/03 07:07:06;;;;;;;5.63;3.38;;;27.80;99.90;;;;;;5125857;27;20036;-50
2022/07/03 07:09:32;;;;;;;8.48;4.53;;;;;;;;;;5116271;27;20071;-50
2022/07/03 07:11:58;;;;;;;5.40;3.97;;;;;;;;;;5114440;27;20112;-50
2022/07/03 07:14:24;;;;;;;5.10;3.22;;;;;;;;;;5114029;27;20051;-50
2022/07/03 07:16:50;;;;;;;4.50;3.70;;;;;;;;;;5062598;27;20046;-50
2022/07/03 07:19:16;;;;;;;6.97;3.70;;;;;;;;;;5116387;27;20027;-51
2022/07/03 07:21:42;;;;;;;8.68;3.60;;;28.60;99.90;;;;;;5111381;27;20436;-50
2022/07/03 07:24:08;;;;;;;6.10;3.53;;;28.70;99.90;;;;;;5114894;27;20020;-51
2022/07/03 07:26:34;;;;;;;8.60;3.45;;;;;;;;;;5112974;27;20032;-50
2022/07/03 07:29:00;;;;;;;5.00;3.35;;;28.90;99.90;;;;;;5118171;27;20394;-51
2022/07/03 07:31:25;;;;;;;9.85;4.43;;;28.90;99.90;;;;;;5114905;27;20065;-51
2022/07/03 07:33:51;;;;;;;6.32;3.22;;;28.90;99.90;;;;;;5061889;27;20043;-50
2022/07/03 07:36:17;;;;;;;6.38;3.35;;;29.10;99.90;;;;;;5113097;27;20027;-51
2022/07/03 07:38:43;;;;;;;6.55;3.40;;;29.30;99.90;;;;;;5114501;27;20051;-50
2022/07/03 07:41:09;;;;;;;6.00;3.45;;;29.20;99.90;;;;;;5062519;28;20039;-51
2022/07/03 07:43:35;;;;;;;5.47;3.28;;;29.20;99.90;;;;;;5113351;27;20034;-51
2022/07/03 07:46:00;;;;;;;6.28;3.63;;;29.20;99.90;;;;;;5116090;27;20193;-50
2022/07/03 07:48:26;;;;;;;5.25;3.35;;;29.20;99.90;;;;;;5110413;27;20545;-51
2022/07/03 07:50:52;;;;;;;7.68;3.78;;;;;;;;;;5111636;27;20134;-52
2022/07/03 07:53:18;;;;;;;3.97;3.38;;;29.50;99.90;;;;;;5117540;27;20107;-50
2022/07/03 07:55:44;;;;;;;5.75;3.13;;;29.60;99.90;;;;;;5118180;27;20118;-50
2022/07/03 07:58:10;;;;;;;8.30;3.42;;;29.70;99.90;;;;;;5112861;27;20107;-50
2022/07/03 08:00:36;;;;;;;6.57;2.92;;;29.70;99.90;;;;;;5117228;27;20031;-50
2022/07/03 08:05:46;;;;;;;6.50;3.00;;;30.00;99.90;;;;;;5113389;27;20030;-51
2022/07/03 08:08:13;;;;;;;8.55;3.45;;;;;;;;;;5110444;27;20162;-51
2022/07/03 08:10:42;;;;;;;6.85;3.30;;;30.40;99.90;;;;;;5128297;27;20045;-50
2022/07/03 08:13:08;;;;;;;5.20;3.28;;;30.40;99.90;;;;;;5115072;27;20534;-50
2022/07/03 08:15:35;;;;;;;5.65;3.03;;;;;;;;;;5113924;27;20091;-51
2022/07/03 08:18:00;;;;;;;4.78;2.88;;;31.00;99.90;;;;;;5114342;27;20032;-51
2022/07/03 08:20:27;;;;;;;3.78;3.13;;;31.10;99.90;;;;;;5109743;28;20027;-50
2022/07/03 08:22:52;;;;;;;6.45;3.13;;;31.10;99.90;;;;;;5113498;27;20024;-50
2022/07/03 08:25:18;;;;;;;6.32;3.30;;;31.30;99.90;;;;;;5110292;27;20037;-51
2022/07/03 08:27:44;;;;;;;5.43;2.83;;;;;;;;;;5109584;27;20143;-51
2022/07/03 08:30:11;;;;;;;11.15;3.42;;;31.10;99.90;;;;;;5115366;27;20036;-51
2022/07/03 08:32:36;;;;;;;7.00;3.22;;;31.30;99.90;;;;;;5111825;27;20048;-50
2022/07/03 08:35:03;;;;;;;5.88;3.47;;;31.20;99.90;;;;;;5116101;27;20107;-52
2022/07/03 08:37:28;;;;;;;6.05;3.20;;;31.30;99.90;;;;;;5114420;27;20039;-51
2022/07/03 08:39:54;;;;;;;16.48;3.30;;;31.40;99.90;;;;;;5110793;27;20378;-51
2022/07/03 08:42:23;;;;;;;4.05;3.00;;;31.50;99.90;;;;;;5114838;27;20056;-51
2022/07/03 08:44:51;;;;;;;6.88;3.20;;;31.60;99.90;;;;;;5107331;27;20118;-51
2022/07/03 08:47:18;;;;;;;4.45;2.88;;;31.60;99.90;;;;;;5110394;27;20035;-51
2022/07/03 08:49:44;;;;;;;3.80;3.00;;;31.60;99.90;;;;;;5114508;28;20027;-50
2022/07/03 08:52:11;;;;;;;11.48;3.28;;;31.80;99.90;;;;;;5115173;28;20026;-51
2022/07/03 08:54:37;;;;;;;5.47;3.20;;;;;;;;;;5110530;27;20044;-51
2022/07/03 08:57:05;;;;;;;10.45;3.40;;;31.90;99.90;;;;;;5114779;27;20020;-51
2022/07/03 08:59:39;;;;;;;4.40;2.92;;;32.10;99.90;;;;;;5111076;27;20367;-51
2022/07/03 09:02:05;;;;;;;18.17;3.28;;;31.90;99.90;;;;;;5109747;27;20483;-51
2022/07/03 09:04:33;;;;;;;5.90;2.63;;;32.10;99.90;;;;;;5113637;27;20023;-51
2022/07/03 09:07:00;;;;;;;6.35;2.88;;;;;;;;;;5104860;28;20042;-51
2022/07/03 09:09:26;;;;;;;3.83;2.97;;;32.40;99.90;;;;;;5115445;27;20042;-51
2022/07/03 09:11:52;;;;;;;4.78;2.92;;;32.20;99.90;;;;;;5115415;27;20031;-50
2022/07/03 09:14:18;;;;;;;7.40;4.07;;;32.40;99.90;;;;;;5123735;27;20034;-51
2022/07/03 09:16:45;;;;;;;5.15;2.90;;;;;;;;;;5110893;28;20389;-51
2022/07/03 09:19:11;;;;;;;7.22;3.53;;;33.10;99.90;;;;;;5115352;28;20031;-52
2022/07/03 09:21:37;;;;;;;7.35;3.30;;;33.00;99.90;;;;;;5113382;27;20035;-51
2022/07/03 09:24:05;;;;;;;4.32;3.30;;;32.90;99.90;;;;;;5114571;28;20032;-51
2022/07/03 09:26:31;;;;;;;3.90;3.05;;;33.00;99.40;;;;;;5093725;28;20135;-52
2022/07/03 09:28:57;;;;;;;6.22;2.72;;;;;;;;;;5114577;28;20114;-52
2022/07/03 09:31:28;;;;;;;7.60;3.00;;;;;;;;;;5106565;28;20036;-51
2022/07/03 09:34:02;;;;;;;9.68;3.55;;;;;;;;;;5111130;28;20116;-51
2022/07/03 09:36:48;;;;;;;4.80;3.08;;;33.90;99.90;;;;;;5115484;28;20031;-48
2022/07/03 09:39:16;;;;;;;5.97;3.50;;;33.70;99.90;;;;;;5112069;28;20036;-48
2022/07/03 09:41:53;;;;;;;7.45;3.20;;;34.10;99.90;;;;;;5110651;28;20081;-49
2022/07/03 09:44:40;;;;;;;3.97;2.85;;;34.00;99.90;;;;;;5109267;28;20070;-49
2022/07/03 09:47:19;;;;;;;4.43;2.92;;;34.00;99.90;;;;;;5113325;28;20044;-49
2022/07/03 09:49:54;;;;;;;4.95;3.30;;;34.30;99.90;;;;;;5115163;28;20036;-49
2022/07/03 09:52:26;;;;;;;6.65;3.22;;;;;;;;;;5108623;28;20039;-50
2022/07/03 09:54:52;;;;;;;4.68;3.20;;;34.50;99.90;;;;;;5117475;28;20938;-48
2022/07/03 09:57:18;;;;;;;8.07;3.37;;;34.70;95.60;;;;;;5353070;22;20660;-59
2022/07/03 10:09:34;;;;;;;11.38;3.88;;;35.30;95.40;;;;;;5060245;28;21136;-49
2022/07/03 10:12:02;;;;;;;4.75;3.13;;;35.50;95.60;;;;;;5061795;28;20029;-52
2022/07/03 10:45:48;;;;;;;5.13;3.35;;;36.60;92.10;;;;;;4974089;28;20137;-49
2022/07/03 11:06:17;;;;;;;13.45;5.55;;;36.80;90.60;;;;;;4951277;28;20118;-52
2022/07/03 11:09:33;;;;;;;7.28;3.70;;;37.20;91.60;;;;;;4978104;28;20074;-50
2022/07/03 11:43:04;;;;;;;8.40;3.67;;;38.40;90.00;;;;;;5063535;28;20089;-52
2022/07/03 12:50:22;;;;;;;9.90;4.68;;;39.90;94.70;;;;;;5027975;28;20056;-51
2022/07/03 13:33:31;;;;;;;7.10;5.00;;;39.80;96.30;;;;;;5062541;28;20416;-51
2022/07/03 14:49:51;;;;;;;6.53;5.32;;;38.00;83.40;;;;;;5066082;28;20063;-47
2022/07/03 17:13:06;;;;;;;11.07;8.57;;;;;;;;;;5062998;28;20044;-51
2022/07/03 17:15:59;;;;;;;15.48;8.40;;;;;;;;;;5063452;28;20101;-51
2022/07/03 17:22:33;;;;;;;14.23;9.20;;;35.00;99.90;;;;;;5064556;28;20121;-51
2022/07/03 17:25:25;;;;;;;13.73;9.60;;;35.00;95.90;;;;;;5066236;28;20033;-51
2022/07/03 18:53:02;;;;;;;25.23;11.43;;;31.30;99.90;;;;;;5065746;28;20036;-54
2022/07/03 18:59:12;;;;;;;28.00;11.98;;;;;;;;;;5069689;28;20507;-55
2022/07/03 19:02:03;;;;;;;18.60;10.32;;;;;;;;;;5051462;28;20068;-55
2022/07/03 19:04:39;;;;;;;20.92;11.88;;;31.20;99.90;;;;;;5070747;28;20123;-53
2022/07/03 20:36:33;;;;;;;14.13;10.25;;;;;;;;;;5047646;28;20512;-54
2022/07/03 21:08:35;;;;;;;12.55;10.02;;;;;;;;;;5048733;28;20399;-49
2022/07/03 21:56:39;;;;;;;17.27;11.05;;;27.80;99.90;;;;;;5051905;28;20561;-50
2022/07/03 21:59:05;;;;;;;;;;;28.00;99.90;;;;;;5088639;28;20040;-51
2022/07/03 22:01:32;;;;;;;16.10;10.18;;;;;;;;;;5088967;28;19934;-54
2022/07/03 22:03:58;;;;;;;11.63;10.25;;;;;;;;;;5056080;28;20483;-50
2022/07/03 22:06:24;;;;;;;15.93;10.43;;;;;;;;;;5090519;28;20051;-52
2022/07/03 22:08:50;;;;;;;15.98;10.55;;;;;;;;;;5091016;28;20047;-55
2022/07/03 22:11:16;;;;;;;15.15;10.00;;;;;;;;;;5089949;28;20409;-54
2022/07/03 22:13:42;;;;;;;15.55;9.80;;;;;;;;;;5092188;28;20048;-51
2022/07/03 22:16:09;;;;;;;16.83;9.13;;;;;;;;;;5094469;28;20024;-52
2022/07/03 22:18:35;;;;;;;13.00;9.85;;;;;;;;;;5091635;28;20047;-52
2022/07/03 22:21:02;;;;;;;12.10;9.82;;;;;;;;;;5075163;28;20451;-51
2022/07/03 22:23:29;;;;;;;12.57;9.15;;;;;;;;;;5094587;28;20061;-51
2022/07/03 22:25:55;;;;;;;12.68;9.88;;;;;;;;;;5093710;28;20038;-54
2022/07/03 22:28:21;;;;;;;9.82;8.65;;;;;;;;;;5092454;28;20071;-51
2022/07/03 22:30:47;;;;;;;9.73;8.30;;;;;;;;;;5094270;28;20042;-50
2022/07/03 22:33:13;;;;;;;11.07;9.32;;;;;;;;;;5094134;28;20031;-50
2022/07/03 22:35:39;;;;;;;9.82;8.52;;;;;;;;;;5094116;28;20054;-50
2022/07/03 22:38:05;;;;;;;10.23;8.32;;;;;;;;;;5093113;28;20467;-53
2022/07/03 22:40:32;;;;;;;15.60;8.68;;;;;;;;;;5093094;28;20118;-55
2022/07/03 22:42:59;;;;;;;16.75;8.90;;;;;;;;;;5094137;28;20053;-51
2022/07/03 22:45:25;;;;;;;13.82;8.65;;;;;;;;;;5092755;28;20028;-54
2022/07/03 22:47:51;;;;;;;9.45;7.60;;;;;;;;;;5093223;28;20063;-54
2022/07/03 22:50:17;;;;;;;10.98;7.60;;;27.40;99.90;;;;;;5092983;28;20032;-54
2022/07/03 22:52:43;;;;;;;13.23;8.27;;;27.40;99.90;;;;;;5094661;28;20057;-52
2022/07/03 22:55:09;;;;;;;12.82;9.40;;;;;;;;;;5094551;28;20031;-52
2022/07/03 22:57:36;;;;;;;12.70;8.23;;;;;;;;;;5114796;27;20043;-51
2022/07/03 23:00:03;;;;;;;12.65;8.20;;;;;;;;;;5132665;27;20035;-54
2022/07/03 23:02:29;;;;;;;14.88;8.68;;;;;;;;;;5132015;27;20046;-51
2022/07/03 23:04:55;;;;;;;14.57;8.75;;;;;;;;;;5131480;27;20033;-52
2022/07/03 23:07:21;;;;;;;10.48;7.60;;;;;;;;;;5132150;27;20418;-53
2022/07/03 23:09:48;;;;;;;16.23;8.55;;;;;;;;;;5123424;27;20107;-51
2022/07/03 23:12:14;;;;;;;9.77;7.45;;;;;;;;;;5127852;27;20023;-56
2022/07/03 23:14:41;;;;;;;13.07;7.60;;;27.20;99.90;;;;;;5126368;27;20023;-51
2022/07/03 23:17:07;;;;;;;10.95;7.10;;;27.60;99.90;;;;;;5126194;27;20059;-54
2022/07/03 23:19:32;;;;;;;8.65;7.75;;;27.30;99.90;;;;;;5096104;27;20081;-52
2022/07/03 23:21:58;;;;;;;8.15;6.93;;;27.30;99.90;;;;;;5111636;27;20477;-54
2022/07/03 23:24:24;;;;;;;12.95;6.80;;;27.20;99.90;;;;;;5098773;27;20578;-54
2022/07/03 23:26:50;;;;;;;9.90;8.15;;;27.40;99.90;;;;;;5110784;27;20129;-54
2022/07/03 23:29:16;;;;;;;10.07;7.38;;;27.10;99.90;;;;;;5112353;27;20071;-51
2022/07/03 23:31:41;;;;;;;10.18;7.55;;;27.10;99.90;;;;;;5126658;27;20474;-51
2022/07/03 23:34:07;;;;;;;9.23;7.15;;;27.10;99.90;;;;;;5093888;27;20439;-51
2022/07/03 23:36:33;;;;;;;8.85;7.63;;;27.20;99.90;;;;;;5129056;27;20035;-53
2022/07/03 23:38:59;;;;;;;9.82;7.53;;;27.40;99.90;;;;;;5093482;27;20071;-52
2022/07/03 23:41:25;;;;;;;10.18;7.53;;;27.50;99.90;;;;;;5131349;27;20065;-51
2022/07/03 23:43:50;;;;;;;12.68;7.43;;;27.00;99.90;;;;;;5093645;27;20047;-53
2022/07/03 23:46:16;;;;;;;12.68;7.35;;;27.00;99.90;;;;;;5115416;27;20035;-53
2022/07/03 23:51:26;;;;;;;9.85;6.90;;;27.00;99.90;;;;;;5124663;27;20065;-50
2022/07/03 23:53:53;;;;;;;411.02;380.60;;;27.00;99.90;;;;;;5129535;27;20462;-52
2022/07/03 23:56:19;;;;;;;8.88;6.38;;;27.00;99.90;;;;;;5126189;27;20027;-53
2022/07/03 23:58:44;;;;;;;10.18;7.13;;;26.90;99.90;;;;;;5129060;27;20401;-53
